createdAt,value
2017-12-16T00:00:14.779Z,31.27
2017-12-16T00:02:43.052Z,31.65
2017-12-16T00:05:11.328Z,32.30
2017-12-16T00:07:39.621Z,32.40
2017-12-16T00:10:07.131Z,36.95
2017-12-16T00:12:34.671Z,32.22
2017-12-16T00:15:02.163Z,30.95
2017-12-16T00:17:29.671Z,38.13
2017-12-16T00:19:57.180Z,45.58
2017-12-16T00:22:25.442Z,37.03
2017-12-16T00:24:52.980Z,37.78
2017-12-16T00:27:20.475Z,39.33
2017-12-16T00:29:47.985Z,39.60
2017-12-16T00:32:15.508Z,41.75
2017-12-16T00:34:43.785Z,41.70
2017-12-16T00:37:12.067Z,42.13
2017-12-16T00:39:39.558Z,37.90
2017-12-16T00:42:07.064Z,42.85
2017-12-16T00:44:35.340Z,45.17
2017-12-16T00:47:02.852Z,40.85
2017-12-16T00:49:30.384Z,44.25
2017-12-16T00:51:57.905Z,39.05
2017-12-16T00:54:25.395Z,47.20
2017-12-16T00:56:52.917Z,61.35
2017-12-16T00:59:20.411Z,49.92
2017-12-16T01:01:47.945Z,51.60
2017-12-16T01:04:15.457Z,50.85
2017-12-16T01:06:42.947Z,54.97
2017-12-16T01:09:10.473Z,49.45
2017-12-16T01:11:37.971Z,44.72
2017-12-16T01:14:06.251Z,59.45
2017-12-16T01:16:33.747Z,53.15
2017-12-16T01:19:01.260Z,43.55
2017-12-16T01:21:28.768Z,55.10
2017-12-16T01:23:56.292Z,47.50
2017-12-16T01:26:24.564Z,51.90
2017-12-16T01:28:52.829Z,51.80
2017-12-16T01:31:20.356Z,56.40
2017-12-16T01:33:59.690Z,54.13
2017-12-16T01:36:39.048Z,52.28
2017-12-16T01:39:06.561Z,51.72
2017-12-16T01:41:34.223Z,53.97
2017-12-16T01:44:01.729Z,57.28
2017-12-16T01:46:29.264Z,59.53
2017-12-16T01:48:56.755Z,58.13
2017-12-16T01:51:24.269Z,57.60
2017-12-16T01:53:51.796Z,65.07
2017-12-16T01:56:19.295Z,54.15
2017-12-16T01:58:46.811Z,63.60
2017-12-16T02:01:15.067Z,60.97
2017-12-16T02:03:42.573Z,73.03
2017-12-16T02:06:10.100Z,60.72
2017-12-16T02:08:38.372Z,64.78
2017-12-16T02:11:06.646Z,72.82
2017-12-16T02:13:34.931Z,66.75
2017-12-16T02:16:03.221Z,63.67
2017-12-16T02:18:30.718Z,65.47
2017-12-16T02:20:58.239Z,74.20
2017-12-16T02:23:25.748Z,71.93
2017-12-16T02:25:53.259Z,76.10
2017-12-16T02:28:20.767Z,76.65
2017-12-16T02:30:48.259Z,74.12
2017-12-16T02:33:15.793Z,88.28
2017-12-16T02:35:43.305Z,82.05
2017-12-16T02:38:10.812Z,84.53
2017-12-16T02:40:38.325Z,79.20
2017-12-16T02:43:05.825Z,83.47
2017-12-16T02:45:34.118Z,86.85
2017-12-16T02:48:02.379Z,79.95
2017-12-16T02:50:29.891Z,91.97
2017-12-16T02:52:57.403Z,98.07
2017-12-16T02:55:25.662Z,82.22
2017-12-16T02:57:53.188Z,90.10
2017-12-16T03:00:20.709Z,83.07
2017-12-16T03:02:48.225Z,81.37
2017-12-16T03:05:15.850Z,81.47
2017-12-16T03:07:43.357Z,86.82
2017-12-16T03:10:10.967Z,93.05
2017-12-16T03:12:38.480Z,87.75
2017-12-16T03:15:05.985Z,93.57
2017-12-16T03:17:33.498Z,93.05
2017-12-16T03:20:01.101Z,109.28
2017-12-16T03:22:28.628Z,102.75
2017-12-16T03:24:56.892Z,112.95
2017-12-16T03:27:24.445Z,116.18
2017-12-16T03:29:51.957Z,105.55
2017-12-16T03:32:19.473Z,127.95
2017-12-16T03:34:47.750Z,115.20
2017-12-16T03:37:16.037Z,134.15
2017-12-16T03:39:44.344Z,135.57
2017-12-16T03:42:11.860Z,126.38
2017-12-16T03:44:40.137Z,130.90
2017-12-16T03:47:08.429Z,134.57
2017-12-16T03:49:36.009Z,133.65
2017-12-16T03:52:03.540Z,125.57
2017-12-16T03:54:31.817Z,135.52
2017-12-16T03:57:00.097Z,149.18
2017-12-16T03:59:28.379Z,126.03
2017-12-16T04:01:55.961Z,139.65
2017-12-16T04:04:23.514Z,157.25
2017-12-16T04:06:51.011Z,147.77
2017-12-16T04:09:18.511Z,157.27
2017-12-16T04:11:46.087Z,136.40
2017-12-16T04:14:13.582Z,165.57
2017-12-16T04:16:41.133Z,139.98
2017-12-16T04:19:08.626Z,165.10
2017-12-16T04:21:36.912Z,162.65
2017-12-16T04:24:04.446Z,160.93
2017-12-16T04:26:31.966Z,146.43
2017-12-16T04:28:59.462Z,172.05
2017-12-16T04:31:26.954Z,149.15
2017-12-16T04:33:54.470Z,161.68
2017-12-16T04:36:21.967Z,150.65
2017-12-16T04:38:50.246Z,170.30
2017-12-16T04:41:17.757Z,154.30
2017-12-16T04:43:45.283Z,153.27
2017-12-16T04:46:12.778Z,159.68
2017-12-16T04:48:40.280Z,163.20
2017-12-16T04:51:07.799Z,152.30
2017-12-16T04:53:35.354Z,163.30
2017-12-16T04:56:02.893Z,126.53
2017-12-16T04:58:30.391Z,131.80
2017-12-16T05:00:57.887Z,133.32
2017-12-16T05:03:25.430Z,121.07
2017-12-16T05:05:52.941Z,117.97
2017-12-16T05:08:20.469Z,116.90
2017-12-16T05:10:48.030Z,129.38
2017-12-16T05:13:15.540Z,115.72
2017-12-16T05:15:43.802Z,124.20
2017-12-16T05:18:11.349Z,125.28
2017-12-16T05:20:38.843Z,121.78
2017-12-16T05:23:07.103Z,127.87
2017-12-16T05:25:34.629Z,116.47
2017-12-16T05:28:02.127Z,117.57
2017-12-16T05:30:30.414Z,129.12
2017-12-16T05:32:58.679Z,109.60
2017-12-16T05:35:26.955Z,119.60
2017-12-16T05:37:54.467Z,135.23
2017-12-16T05:40:21.977Z,124.70
2017-12-16T05:42:50.273Z,127.82
2017-12-16T05:45:17.764Z,129.05
2017-12-16T05:47:45.262Z,139.50
2017-12-16T05:50:12.775Z,130.05
2017-12-16T05:52:40.268Z,118.87
2017-12-16T05:55:08.565Z,118.65
2017-12-16T05:57:36.849Z,123.47
2017-12-16T06:00:05.156Z,127.03
2017-12-16T06:02:32.661Z,124.32
2017-12-16T06:05:00.177Z,122.80
2017-12-16T06:07:27.704Z,129.93
2017-12-16T06:09:55.202Z,129.75
2017-12-16T06:12:22.723Z,146.98
2017-12-16T06:14:51.032Z,134.82
2017-12-16T06:17:18.541Z,148.60
2017-12-16T06:19:46.832Z,141.88
2017-12-16T06:22:14.345Z,144.62
2017-12-16T06:24:41.854Z,126.55
2017-12-16T06:27:09.372Z,129.68
2017-12-16T06:29:38.405Z,140.88
2017-12-16T06:32:05.916Z,135.30
2017-12-16T06:34:33.431Z,137.65
2017-12-16T06:37:00.931Z,130.93
2017-12-16T06:39:28.443Z,119.13
2017-12-16T06:41:55.953Z,130.52
2017-12-16T06:44:23.497Z,143.00
2017-12-16T06:46:50.995Z,102.20
2017-12-16T06:49:19.278Z,118.32
2017-12-16T06:51:46.862Z,115.20
2017-12-16T06:54:14.372Z,116.57
2017-12-16T06:56:41.905Z,125.78
2017-12-16T06:59:09.425Z,113.72
2017-12-16T07:01:36.918Z,110.18
2017-12-16T07:04:04.506Z,113.03
2017-12-16T07:06:31.959Z,114.82
2017-12-16T07:08:59.533Z,97.93
2017-12-16T07:11:27.808Z,94.53
2017-12-16T07:13:56.080Z,97.20
2017-12-16T07:16:23.630Z,96.87
2017-12-16T07:18:51.127Z,91.03
2017-12-16T07:21:18.639Z,90.43
2017-12-16T07:23:46.157Z,112.68
2017-12-16T07:26:13.699Z,96.70
2017-12-16T07:28:41.204Z,97.85
2017-12-16T07:31:08.717Z,94.57
2017-12-16T07:33:36.250Z,101.38
2017-12-16T07:36:04.515Z,98.82
2017-12-16T07:38:32.056Z,109.75
2017-12-16T07:40:59.546Z,105.97
2017-12-16T07:43:27.822Z,102.72
2017-12-16T07:45:56.102Z,122.80
2017-12-16T07:48:24.385Z,128.77
2017-12-16T07:50:52.685Z,113.78
2017-12-16T07:53:20.182Z,110.20
2017-12-16T07:55:49.187Z,113.47
2017-12-16T07:58:18.222Z,115.03
2017-12-16T08:00:46.641Z,114.80
2017-12-16T08:03:14.177Z,111.03
2017-12-16T08:05:41.713Z,109.20
2017-12-16T08:08:09.220Z,95.47
2017-12-16T08:10:36.749Z,109.93
2017-12-16T08:13:04.264Z,123.82
2017-12-16T08:15:32.555Z,110.65
2017-12-16T08:18:00.077Z,115.57
2017-12-16T08:20:27.588Z,112.78
2017-12-16T08:22:55.098Z,102.65
2017-12-16T08:25:22.595Z,118.85
2017-12-16T08:27:50.123Z,104.87
2017-12-16T08:30:17.622Z,100.68
2017-12-16T08:32:45.122Z,126.53
2017-12-16T08:35:12.644Z,109.30
2017-12-16T08:37:40.147Z,113.57
2017-12-16T08:40:08.479Z,119.10
2017-12-16T08:42:35.989Z,105.45
2017-12-16T08:45:03.506Z,109.30
2017-12-16T08:47:31.024Z,117.43
2017-12-16T08:49:59.325Z,103.95
2017-12-16T08:52:26.847Z,113.90
2017-12-16T08:54:55.121Z,124.47
2017-12-16T08:57:22.625Z,110.97
2017-12-16T08:59:50.143Z,124.85
2017-12-16T09:02:18.422Z,104.15
2017-12-16T09:04:46.729Z,104.93
2017-12-16T09:07:14.901Z,106.43
2017-12-16T09:09:42.445Z,109.35
2017-12-16T09:12:09.968Z,120.32
2017-12-16T09:14:37.968Z,120.30
2017-12-16T09:17:06.269Z,118.30
2017-12-16T09:19:33.767Z,133.00
2017-12-16T09:22:01.262Z,115.85
2017-12-16T09:24:28.779Z,120.28
2017-12-16T09:26:56.293Z,115.03
2017-12-16T09:29:23.819Z,122.80
2017-12-16T09:31:52.096Z,115.90
2017-12-16T09:34:20.363Z,114.97
2017-12-16T09:36:47.890Z,110.05
2017-12-16T09:39:15.387Z,103.10
2017-12-16T09:41:43.670Z,114.00
2017-12-16T09:44:11.948Z,104.07
2017-12-16T09:46:40.214Z,106.47
2017-12-16T09:49:08.495Z,119.57
2017-12-16T09:51:36.759Z,100.80
2017-12-16T09:54:04.274Z,85.53
2017-12-16T09:56:31.763Z,79.95
2017-12-16T09:59:00.037Z,85.78
2017-12-16T10:01:27.546Z,87.97
2017-12-16T10:03:55.041Z,81.72
2017-12-16T10:06:22.572Z,84.87
2017-12-16T10:08:50.081Z,89.15
2017-12-16T10:11:17.574Z,79.25
2017-12-16T10:13:45.101Z,91.60
2017-12-16T10:16:12.609Z,79.80
2017-12-16T10:18:40.141Z,77.93
2017-12-16T10:21:08.399Z,72.60
2017-12-16T10:23:36.673Z,77.60
2017-12-16T10:26:04.178Z,77.18
2017-12-16T10:28:31.674Z,82.85
2017-12-16T10:30:59.204Z,81.97
2017-12-16T10:33:26.702Z,74.10
2017-12-16T10:35:54.209Z,62.40
2017-12-16T10:38:21.736Z,50.55
2017-12-16T10:40:49.999Z,62.17
2017-12-16T10:43:18.291Z,72.00
2017-12-16T10:45:46.552Z,65.72
2017-12-16T10:48:14.811Z,54.25
2017-12-16T10:50:42.336Z,58.50
2017-12-16T10:53:09.830Z,69.10
2017-12-16T10:55:37.360Z,68.60
2017-12-16T10:58:04.854Z,47.33
2017-12-16T11:00:35.180Z,66.43
2017-12-16T11:14:22.693Z,59.33
2017-12-16T11:16:50.224Z,52.60
2017-12-16T11:19:17.724Z,50.83
2017-12-16T11:21:45.987Z,51.35
2017-12-16T11:24:15.022Z,53.90
2017-12-16T11:26:42.537Z,49.10
2017-12-16T11:29:10.059Z,53.25
2017-12-16T11:31:37.572Z,48.30
2017-12-16T11:34:05.856Z,57.15
2017-12-16T11:36:33.381Z,44.45
2017-12-16T11:39:00.889Z,54.15
2017-12-16T11:41:28.400Z,47.45
2017-12-16T11:43:55.910Z,40.67
2017-12-16T11:46:23.517Z,54.33
2017-12-16T11:48:51.015Z,51.00
2017-12-16T11:51:18.571Z,44.88
2017-12-16T11:53:46.056Z,45.65
2017-12-16T11:56:13.610Z,46.58
2017-12-16T11:58:41.131Z,42.72
2017-12-16T12:01:09.409Z,49.40
2017-12-16T12:03:37.671Z,47.72
2017-12-16T12:06:05.955Z,49.78
2017-12-16T12:08:34.219Z,159.50
2017-12-16T12:11:01.757Z,39.35
2017-12-16T12:13:29.255Z,40.30
2017-12-16T12:15:57.533Z,36.50
2017-12-16T12:18:25.813Z,34.08
2017-12-16T12:20:53.321Z,33.22
2017-12-16T12:23:20.858Z,38.25
2017-12-16T12:25:48.374Z,39.47
2017-12-16T12:28:16.639Z,30.55
2017-12-16T12:30:44.155Z,38.70
2017-12-16T12:33:11.651Z,27.70
2017-12-16T12:35:39.197Z,28.42
2017-12-16T12:38:06.709Z,38.80
2017-12-16T12:40:34.211Z,36.70
2017-12-16T12:43:01.747Z,45.12
2017-12-16T12:45:29.247Z,28.90
2017-12-16T12:47:57.568Z,25.25
2017-12-16T12:50:25.077Z,20.75
2017-12-16T12:52:52.575Z,21.15
2017-12-16T12:55:20.085Z,23.17
2017-12-16T12:57:47.597Z,22.00
2017-12-16T13:00:15.119Z,23.85
2017-12-16T13:02:43.379Z,13.43
2017-12-16T13:05:10.885Z,21.12
2017-12-16T13:07:38.423Z,16.33
2017-12-16T13:10:06.684Z,24.30
2017-12-16T13:12:34.989Z,22.80
2017-12-16T13:15:02.492Z,16.15
2017-12-16T13:17:30.002Z,19.08
2017-12-16T13:19:57.516Z,17.35
2017-12-16T13:22:26.523Z,23.55
2017-12-16T13:24:54.078Z,22.00
2017-12-16T13:27:21.571Z,18.40
2017-12-16T13:29:49.086Z,23.60
2017-12-16T13:32:16.600Z,22.80
2017-12-16T13:34:44.111Z,15.70
2017-12-16T13:37:11.646Z,17.37
2017-12-16T13:39:39.202Z,20.80
2017-12-16T13:42:06.700Z,22.70
2017-12-16T13:44:34.979Z,23.40
2017-12-16T13:47:03.254Z,27.87
2017-12-16T13:49:31.537Z,25.20
2017-12-16T13:51:59.846Z,23.95
2017-12-16T13:54:27.357Z,31.48
2017-12-16T13:56:55.653Z,23.60
2017-12-16T13:59:24.080Z,17.90
2017-12-16T14:01:51.604Z,17.65
2017-12-16T14:04:19.111Z,21.25
2017-12-16T14:06:46.622Z,22.52
2017-12-16T14:09:14.189Z,17.48
2017-12-16T14:11:41.683Z,14.32
2017-12-16T14:14:09.307Z,21.65
2017-12-16T14:16:36.817Z,28.70
2017-12-16T14:19:04.373Z,16.48
2017-12-16T14:21:31.872Z,20.70
2017-12-16T14:23:59.383Z,24.25
2017-12-16T14:26:26.899Z,18.02
2017-12-16T14:28:54.422Z,23.00
2017-12-16T14:31:22.702Z,22.42
2017-12-16T14:33:50.973Z,17.50
2017-12-16T14:36:19.250Z,14.18
2017-12-16T14:38:47.668Z,12.80
2017-12-16T14:41:15.181Z,25.25
2017-12-16T14:43:43.481Z,13.93
2017-12-16T14:46:10.991Z,14.32
2017-12-16T14:48:38.509Z,9.52
2017-12-16T14:51:06.034Z,15.13
2017-12-16T14:53:34.295Z,13.75
2017-12-16T14:56:01.811Z,8.40
2017-12-16T14:58:29.324Z,15.02
2017-12-16T15:00:57.588Z,14.38
2017-12-16T15:03:25.882Z,17.48
2017-12-16T15:05:54.164Z,21.02
2017-12-16T15:08:22.438Z,26.00
2017-12-16T15:10:50.691Z,13.95
2017-12-16T15:13:18.195Z,14.65
2017-12-16T15:15:45.705Z,21.48
2017-12-16T15:18:13.228Z,14.87
2017-12-16T15:20:40.722Z,10.38
2017-12-16T15:23:08.214Z,22.13
2017-12-16T15:25:35.727Z,21.65
2017-12-16T15:28:03.223Z,10.85
2017-12-16T15:30:31.507Z,13.18
2017-12-16T15:32:59.019Z,13.95
2017-12-16T15:35:26.529Z,16.50
2017-12-16T15:37:54.100Z,29.60
2017-12-16T15:40:21.622Z,9.88
2017-12-16T15:42:49.932Z,11.00
2017-12-16T15:45:17.500Z,25.00
2017-12-16T15:47:45.004Z,14.43
2017-12-16T15:50:12.532Z,13.95
2017-12-16T15:52:40.036Z,10.27
2017-12-16T15:55:08.333Z,21.90
2017-12-16T15:57:35.832Z,9.25
2017-12-16T16:00:03.337Z,13.15
2017-12-16T16:02:30.855Z,24.35
2017-12-16T16:04:58.365Z,12.95
2017-12-16T16:07:25.956Z,23.92
2017-12-16T16:09:53.452Z,17.73
2017-12-16T16:12:21.711Z,16.85
2017-12-16T16:14:49.337Z,20.67
2017-12-16T16:17:16.846Z,24.23
2017-12-16T16:19:44.530Z,11.85
2017-12-16T16:22:12.038Z,15.35
2017-12-16T16:24:39.560Z,18.08
2017-12-16T16:27:07.101Z,24.27
2017-12-16T16:29:35.372Z,14.75
2017-12-16T16:32:03.674Z,14.02
2017-12-16T16:34:31.173Z,11.60
2017-12-16T16:36:58.702Z,18.20
2017-12-16T16:39:26.235Z,10.02
2017-12-16T16:41:53.746Z,21.48
2017-12-16T16:44:21.281Z,8.90
2017-12-16T16:46:48.790Z,17.55
2017-12-16T16:49:17.051Z,23.62
2017-12-16T16:51:44.593Z,31.17
2017-12-16T16:54:12.101Z,13.38
2017-12-16T16:56:39.633Z,24.50
2017-12-16T16:59:07.147Z,18.42
2017-12-16T17:01:34.661Z,20.05
2017-12-16T17:04:02.940Z,15.63
2017-12-16T17:06:31.213Z,15.77
2017-12-16T17:08:59.534Z,25.60
2017-12-16T17:11:27.042Z,11.50
2017-12-16T17:13:55.345Z,23.12
2017-12-16T17:16:22.863Z,23.27
2017-12-16T17:18:50.370Z,27.00
2017-12-16T17:21:17.905Z,17.10
2017-12-16T17:23:46.177Z,27.98
2017-12-16T17:26:14.485Z,18.25
2017-12-16T17:28:42.009Z,21.17
2017-12-16T17:31:10.300Z,17.65
2017-12-16T17:33:37.824Z,22.50
2017-12-16T17:36:05.323Z,19.00
2017-12-16T17:38:32.836Z,26.52
2017-12-16T17:41:00.368Z,24.85
2017-12-16T17:43:27.860Z,18.73
2017-12-16T17:45:55.371Z,24.20
2017-12-16T17:48:22.868Z,18.08
2017-12-16T17:50:50.414Z,19.80
2017-12-16T17:53:17.908Z,17.15
2017-12-16T17:55:46.184Z,15.73
2017-12-16T17:58:14.477Z,19.12
2017-12-16T18:00:41.976Z,15.13
2017-12-16T18:03:09.614Z,20.67
2017-12-16T18:05:37.123Z,22.70
2017-12-16T18:08:04.776Z,16.30
2017-12-16T18:10:32.256Z,23.27
2017-12-16T18:13:00.515Z,31.00
2017-12-16T18:15:28.031Z,16.83
2017-12-16T18:17:55.541Z,18.02
2017-12-16T18:20:23.073Z,22.98
2017-12-16T18:22:50.598Z,11.73
2017-12-16T18:25:18.109Z,11.50
2017-12-16T18:27:45.634Z,17.50
2017-12-16T18:30:13.147Z,9.95
2017-12-16T18:32:41.450Z,9.75
2017-12-16T18:35:08.958Z,8.00
2017-12-16T18:37:36.456Z,10.05
2017-12-16T18:40:03.968Z,11.02
2017-12-16T18:42:31.454Z,8.73
2017-12-16T18:44:59.756Z,18.45
2017-12-16T18:47:27.266Z,16.20
2017-12-16T18:49:55.549Z,14.05
2017-12-16T18:52:23.064Z,21.92
2017-12-16T18:54:50.555Z,14.15
2017-12-16T18:57:18.099Z,24.37
2017-12-16T18:59:45.593Z,16.75
2017-12-16T19:02:13.868Z,25.88
2017-12-16T19:04:42.160Z,21.60
2017-12-16T19:07:09.651Z,36.53
2017-12-16T19:09:37.168Z,15.20
2017-12-16T19:12:05.444Z,21.55
2017-12-16T19:14:33.731Z,16.90
2017-12-16T19:17:01.233Z,22.77
2017-12-16T19:19:28.742Z,23.05
2017-12-16T19:21:56.269Z,15.90
2017-12-16T19:24:23.777Z,22.15
2017-12-16T19:26:51.315Z,12.85
2017-12-16T19:29:19.754Z,21.85
2017-12-16T19:31:47.269Z,14.57
2017-12-16T19:34:14.796Z,19.20
2017-12-16T19:36:43.073Z,21.45
2017-12-16T19:39:11.359Z,17.60
2017-12-16T19:41:38.889Z,17.85
2017-12-16T19:44:06.405Z,19.55
2017-12-16T19:46:33.917Z,26.58
2017-12-16T19:49:02.184Z,26.67
2017-12-16T19:51:31.236Z,25.33
2017-12-16T19:53:58.753Z,25.15
2017-12-16T19:56:27.015Z,23.75
2017-12-16T19:58:54.535Z,28.42
2017-12-16T20:01:22.038Z,21.90
2017-12-16T20:03:50.485Z,26.65
2017-12-16T20:06:18.119Z,22.98
2017-12-16T20:08:45.633Z,26.40
2017-12-16T20:11:13.916Z,22.15
2017-12-16T20:13:42.198Z,29.40
2017-12-16T20:16:10.494Z,24.25
2017-12-16T20:18:38.004Z,35.40
2017-12-16T20:21:05.541Z,23.33
2017-12-16T20:23:33.034Z,28.92
2017-12-16T20:26:00.547Z,38.95
2017-12-16T20:28:28.067Z,29.00
2017-12-16T20:30:56.339Z,22.08
2017-12-16T20:33:24.641Z,31.25
2017-12-16T20:35:52.149Z,32.28
2017-12-16T20:38:19.765Z,30.80
2017-12-16T20:40:47.279Z,33.80
2017-12-16T20:43:14.790Z,47.22
2017-12-16T20:45:42.308Z,30.65
2017-12-16T20:48:10.583Z,29.45
2017-12-16T20:50:38.876Z,29.12
2017-12-16T20:53:06.375Z,47.22
2017-12-16T20:55:33.885Z,36.03
2017-12-16T20:58:02.163Z,29.52
2017-12-16T21:00:29.671Z,30.70
2017-12-16T21:02:57.209Z,24.58
2017-12-16T21:05:24.760Z,45.10
2017-12-16T21:07:52.259Z,28.42
2017-12-16T21:10:19.779Z,30.55
2017-12-16T21:12:47.275Z,25.37
2017-12-16T21:15:14.817Z,31.45
2017-12-16T21:17:42.315Z,19.70
2017-12-16T21:20:10.589Z,23.75
2017-12-16T21:22:38.867Z,40.22
2017-12-16T21:25:07.630Z,22.55
2017-12-16T21:27:35.178Z,26.33
2017-12-16T21:30:02.815Z,30.05
2017-12-16T21:32:30.364Z,24.92
2017-12-16T21:34:57.880Z,16.98
2017-12-16T21:37:25.383Z,28.30
2017-12-16T21:39:52.922Z,30.83
2017-12-16T21:42:20.441Z,20.90
2017-12-16T21:44:48.062Z,26.65
2017-12-16T21:47:15.598Z,27.95
2017-12-16T21:49:43.110Z,29.52
2017-12-16T21:52:10.639Z,26.23
2017-12-16T21:54:38.135Z,30.75
2017-12-16T21:57:05.645Z,28.62
2017-12-16T21:59:33.174Z,36.95
2017-12-16T22:02:01.436Z,33.50
2017-12-16T22:04:28.964Z,29.63
2017-12-16T22:06:56.463Z,27.33
2017-12-16T22:09:24.815Z,29.92
2017-12-16T22:11:52.317Z,26.95
2017-12-16T22:14:19.898Z,24.85
2017-12-16T22:16:47.418Z,25.85
2017-12-16T22:19:15.699Z,29.17
2017-12-16T22:21:43.959Z,43.17
2017-12-16T22:24:11.486Z,32.88
2017-12-16T22:26:38.984Z,32.83
2017-12-16T22:29:07.281Z,43.78
2017-12-16T22:31:34.788Z,32.13
2017-12-16T22:34:02.312Z,35.95
2017-12-16T22:36:29.827Z,35.17
2017-12-16T22:38:57.375Z,43.30
2017-12-16T22:41:25.046Z,31.52
2017-12-16T22:43:52.515Z,42.72
2017-12-16T22:46:20.791Z,40.85
2017-12-16T22:48:49.065Z,47.08
2017-12-16T22:51:17.363Z,43.17
2017-12-16T22:53:44.883Z,50.15
2017-12-16T22:56:12.429Z,50.67
2017-12-16T22:58:39.955Z,34.08
2017-12-16T23:01:07.450Z,38.10
2017-12-16T23:03:35.064Z,40.20
2017-12-16T23:06:02.567Z,46.10
2017-12-16T23:08:30.195Z,60.22
2017-12-16T23:10:57.725Z,48.47
2017-12-16T23:13:25.987Z,57.75
2017-12-16T23:15:54.274Z,57.10
2017-12-16T23:18:22.549Z,52.08
2017-12-16T23:20:50.823Z,51.08
2017-12-16T23:23:18.347Z,57.30
2017-12-16T23:25:45.843Z,58.35
2017-12-16T23:28:14.146Z,61.20
2017-12-16T23:30:41.643Z,56.35
2017-12-16T23:33:09.154Z,62.58
2017-12-16T23:35:36.672Z,62.45
2017-12-16T23:38:04.185Z,53.83
2017-12-16T23:40:31.717Z,58.35
2017-12-16T23:42:59.229Z,54.08
2017-12-16T23:45:26.723Z,48.58
2017-12-16T23:47:55.038Z,58.55
2017-12-16T23:50:22.542Z,54.97
2017-12-16T23:52:50.059Z,53.65
2017-12-16T23:55:17.556Z,42.53
2017-12-16T23:57:45.074Z,55.42
